createdAt,value
2023-03-19T00:00:23.735Z,6.43
2023-03-19T00:02:51.906Z,5.93
2023-03-19T00:05:19.481Z,5.73
2023-03-19T00:07:46.593Z,5.73
2023-03-19T00:10:13.844Z,6.83
2023-03-19T00:12:40.983Z,6.10
2023-03-19T00:15:12.288Z,6.20
2023-03-19T00:17:39.127Z,6.50
2023-03-19T00:20:06.828Z,5.93
2023-03-19T00:22:33.915Z,6.27
2023-03-19T00:25:01.532Z,6.10
2023-03-19T00:27:28.468Z,5.57
2023-03-19T00:29:55.882Z,5.70
2023-03-19T00:32:22.730Z,5.67
2023-03-19T00:34:49.656Z,6.20
2023-03-19T00:37:17.436Z,6.03
2023-03-19T00:39:44.796Z,6.60
2023-03-19T00:42:12.019Z,6.60
2023-03-19T00:44:38.902Z,6.33
2023-03-19T00:47:07.707Z,6.23
2023-03-19T00:49:34.602Z,6.53
2023-03-19T00:52:01.592Z,5.87
2023-03-19T00:54:28.501Z,6.90
2023-03-19T00:56:55.371Z,7.17
2023-03-19T00:59:22.234Z,7.23
2023-03-19T01:01:49.081Z,7.77
2023-03-19T01:04:16.015Z,8.27
2023-03-19T01:06:43.576Z,6.77
2023-03-19T01:09:10.665Z,6.87
2023-03-19T01:11:37.746Z,7.67
2023-03-19T01:14:04.582Z,7.10
2023-03-19T01:16:31.717Z,7.60
2023-03-19T01:18:58.997Z,7.20
2023-03-19T01:21:26.094Z,7.80
2023-03-19T01:23:53.480Z,7.00
2023-03-19T01:26:20.697Z,7.93
2023-03-19T01:28:47.612Z,7.00
2023-03-19T01:31:14.563Z,7.03
2023-03-19T01:33:42.754Z,7.50
2023-03-19T01:36:10.114Z,7.80
2023-03-19T01:38:37.220Z,7.60
2023-03-19T01:41:04.449Z,7.47
2023-03-19T01:43:32.708Z,6.70
2023-03-19T01:46:04.680Z,7.03
2023-03-19T01:48:53.028Z,6.70
2023-03-19T01:51:26.402Z,6.73
2023-03-19T01:54:07.097Z,7.83
2023-03-19T01:56:37.433Z,7.27
2023-03-19T01:59:12.509Z,6.80
2023-03-19T02:01:49.696Z,7.10
2023-03-19T02:04:17.073Z,7.30
2023-03-19T02:06:45.043Z,7.23
2023-03-19T02:09:14.179Z,7.90
2023-03-19T02:11:41.716Z,7.67
2023-03-19T02:14:09.879Z,7.53
2023-03-19T02:16:37.063Z,7.80
2023-03-19T02:19:06.844Z,8.20
2023-03-19T02:21:33.679Z,8.00
2023-03-19T02:24:02.803Z,7.20
2023-03-19T02:26:30.752Z,8.00
2023-03-19T02:28:57.629Z,8.47
2023-03-19T02:31:25.176Z,8.27
2023-03-19T02:34:01.434Z,8.30
2023-03-19T02:36:42.342Z,9.23
2023-03-19T02:39:19.379Z,8.17
2023-03-19T02:41:47.211Z,8.57
2023-03-19T02:44:14.324Z,8.73
2023-03-19T02:46:41.177Z,9.20
2023-03-19T02:49:08.562Z,10.00
2023-03-19T02:51:37.716Z,8.50
2023-03-19T02:54:06.405Z,9.40
2023-03-19T02:56:33.440Z,8.67
2023-03-19T02:59:00.304Z,8.87
2023-03-19T03:01:27.523Z,9.30
2023-03-19T03:03:54.430Z,9.23
2023-03-19T03:06:21.621Z,8.60
2023-03-19T03:08:48.529Z,8.13
2023-03-19T03:11:18.822Z,8.23
2023-03-19T03:13:45.914Z,7.70
2023-03-19T03:16:14.308Z,7.33
2023-03-19T03:18:41.448Z,7.20
2023-03-19T03:21:09.050Z,5.90
2023-03-19T03:23:37.292Z,5.67
2023-03-19T03:26:04.230Z,5.60
2023-03-19T03:28:31.086Z,4.70
2023-03-19T03:31:02.292Z,5.07
2023-03-19T03:33:29.700Z,4.63
2023-03-19T03:35:56.672Z,4.97
2023-03-19T03:38:23.735Z,5.00
2023-03-19T03:40:54.129Z,4.23
2023-03-19T03:43:21.888Z,4.40
2023-03-19T03:45:49.874Z,4.87
2023-03-19T03:48:17.880Z,4.30
2023-03-19T03:50:44.996Z,4.63
2023-03-19T03:53:13.238Z,4.37
2023-03-19T03:55:40.622Z,4.57
2023-03-19T03:58:07.957Z,5.30
2023-03-19T04:00:35.612Z,4.63
2023-03-19T04:03:03.138Z,4.27
2023-03-19T04:05:30.047Z,5.37
2023-03-19T04:07:57.227Z,4.67
2023-03-19T04:10:24.263Z,4.57
2023-03-19T04:12:51.362Z,4.70
2023-03-19T04:15:18.980Z,4.70
2023-03-19T04:17:46.059Z,5.33
2023-03-19T04:20:14.358Z,4.70
2023-03-19T04:22:41.763Z,4.20
2023-03-19T04:25:09.317Z,4.50
2023-03-19T04:27:36.957Z,4.67
2023-03-19T04:30:05.288Z,4.33
2023-03-19T04:32:33.545Z,4.50
2023-03-19T04:35:00.740Z,4.50
2023-03-19T04:37:28.122Z,4.47
2023-03-19T04:39:55.394Z,4.40
2023-03-19T04:42:22.752Z,4.30
2023-03-19T04:44:49.634Z,4.10
2023-03-19T04:47:16.904Z,3.90
2023-03-19T04:49:44.116Z,4.50
2023-03-19T04:52:11.245Z,4.57
2023-03-19T04:54:38.515Z,4.30
2023-03-19T04:57:05.689Z,4.93
2023-03-19T04:59:32.652Z,4.47
2023-03-19T05:01:59.485Z,4.60
2023-03-19T05:04:27.356Z,5.27
2023-03-19T05:06:54.226Z,4.27
2023-03-19T05:09:21.197Z,6.00
2023-03-19T05:11:48.083Z,4.70
2023-03-19T05:14:14.957Z,5.23
2023-03-19T05:16:42.833Z,4.97
2023-03-19T05:19:11.344Z,4.87
2023-03-19T05:21:38.518Z,5.70
2023-03-19T05:24:05.747Z,5.40
2023-03-19T05:26:33.003Z,5.57
2023-03-19T05:29:00.187Z,5.50
2023-03-19T05:31:27.137Z,6.33
2023-03-19T05:33:54.185Z,6.37
2023-03-19T05:36:21.198Z,6.30
2023-03-19T05:38:48.063Z,6.17
2023-03-19T05:41:15.197Z,6.20
2023-03-19T05:43:42.684Z,6.03
2023-03-19T05:46:10.158Z,6.00
2023-03-19T05:48:37.931Z,8.60
2023-03-19T05:51:05.561Z,6.77
2023-03-19T05:53:32.603Z,6.97
2023-03-19T05:55:59.549Z,6.80
2023-03-19T05:58:26.734Z,6.90
2023-03-19T06:00:57.011Z,6.87
2023-03-19T06:03:24.970Z,7.47
2023-03-19T06:05:52.567Z,7.63
2023-03-19T06:08:21.985Z,7.33
2023-03-19T06:10:49.156Z,7.13
2023-03-19T06:13:16.191Z,7.37
2023-03-19T06:15:43.474Z,7.47
2023-03-19T06:18:10.450Z,7.80
2023-03-19T06:20:37.526Z,7.30
2023-03-19T06:23:04.687Z,7.40
2023-03-19T06:25:31.790Z,8.00
2023-03-19T06:27:59.774Z,8.03
2023-03-19T06:30:27.630Z,9.30
2023-03-19T06:32:54.817Z,9.20
2023-03-19T06:35:22.451Z,8.73
2023-03-19T06:37:49.952Z,8.60
2023-03-19T06:40:17.479Z,9.03
2023-03-19T06:42:49.199Z,8.50
2023-03-19T06:45:19.027Z,8.20
2023-03-19T06:47:48.084Z,7.80
2023-03-19T06:50:16.486Z,7.87
2023-03-19T06:52:44.463Z,7.83
2023-03-19T06:55:12.650Z,8.47
2023-03-19T06:57:41.259Z,8.00
2023-03-19T07:00:11.733Z,7.90
2023-03-19T07:02:38.862Z,8.33
2023-03-19T07:05:06.636Z,9.17
2023-03-19T07:07:33.950Z,8.60
2023-03-19T07:10:01.273Z,8.47
2023-03-19T07:12:28.419Z,8.90
2023-03-19T07:14:58.518Z,8.90
2023-03-19T07:17:26.101Z,8.23
2023-03-19T07:19:53.079Z,8.30
2023-03-19T07:22:20.214Z,8.40
2023-03-19T07:24:47.773Z,8.43
2023-03-19T07:27:15.026Z,7.60
2023-03-19T07:29:42.084Z,8.60
2023-03-19T07:32:11.009Z,9.30
2023-03-19T07:34:38.510Z,7.63
2023-03-19T07:37:06.177Z,6.60
2023-03-19T07:39:33.912Z,8.07
2023-03-19T07:42:00.895Z,7.20
2023-03-19T07:44:28.312Z,6.93
2023-03-19T07:46:55.260Z,7.27
2023-03-19T07:49:23.014Z,7.27
2023-03-19T07:51:49.968Z,8.20
2023-03-19T07:54:17.586Z,7.97
2023-03-19T07:56:44.852Z,8.83
2023-03-19T07:59:12.015Z,9.30
2023-03-19T08:01:39.410Z,8.37
2023-03-19T08:04:06.652Z,8.80
2023-03-19T08:06:33.745Z,8.80
2023-03-19T08:09:01.044Z,8.80
2023-03-19T08:11:30.049Z,8.40
2023-03-19T08:13:57.011Z,8.77
2023-03-19T08:16:23.959Z,8.60
2023-03-19T08:18:52.632Z,8.53
2023-03-19T08:21:20.503Z,9.47
2023-03-19T08:23:47.692Z,9.23
2023-03-19T08:26:14.710Z,8.70
2023-03-19T08:28:42.447Z,8.83
2023-03-19T08:31:11.198Z,8.70
2023-03-19T08:33:38.922Z,8.00
2023-03-19T08:36:14.813Z,8.80
2023-03-19T08:38:42.159Z,8.93
2023-03-19T08:41:09.486Z,8.53
2023-03-19T08:43:37.738Z,8.97
2023-03-19T08:46:05.734Z,8.60
2023-03-19T08:48:33.691Z,8.87
2023-03-19T08:51:02.764Z,8.50
2023-03-19T08:53:32.375Z,9.03
2023-03-19T08:56:05.582Z,9.00
2023-03-19T08:58:32.752Z,9.60
2023-03-19T09:01:12.268Z,8.60
2023-03-19T09:03:41.269Z,9.10
2023-03-19T09:06:10.448Z,11.50
2023-03-19T09:08:38.362Z,9.83
2023-03-19T09:11:06.544Z,9.20
2023-03-19T09:13:33.755Z,9.97
2023-03-19T09:16:01.423Z,9.27
2023-03-19T09:18:28.959Z,8.93
2023-03-19T09:20:55.966Z,9.47
2023-03-19T09:23:23.521Z,8.83
2023-03-19T09:25:50.699Z,9.30
2023-03-19T09:28:17.910Z,8.90
2023-03-19T09:30:49.675Z,8.87
2023-03-19T09:33:18.568Z,9.10
2023-03-19T09:35:53.044Z,9.10
2023-03-19T09:38:22.049Z,9.50
2023-03-19T09:41:02.515Z,9.37
2023-03-19T09:43:49.479Z,9.50
2023-03-19T09:46:24.565Z,7.97
2023-03-19T09:49:12.796Z,7.67
2023-03-19T09:52:03.691Z,8.83
2023-03-19T09:54:59.134Z,8.37
2023-03-19T09:57:26.378Z,8.30
2023-03-19T09:59:54.840Z,8.30
2023-03-19T10:02:43.339Z,7.67
2023-03-19T10:05:19.471Z,7.67
2023-03-19T10:07:56.392Z,8.33
2023-03-19T10:10:39.615Z,8.30
2023-03-19T10:13:38.575Z,7.93
2023-03-19T10:16:11.558Z,8.40
2023-03-19T10:18:44.610Z,8.13
2023-03-19T10:21:19.371Z,8.70
2023-03-19T10:24:00.947Z,8.93
2023-03-19T10:26:35.468Z,8.00
2023-03-19T10:29:14.589Z,9.27
2023-03-19T10:31:41.302Z,9.03
2023-03-19T10:34:34.773Z,9.40
2023-03-19T10:37:26.552Z,8.70
2023-03-19T10:39:57.675Z,8.60
2023-03-19T10:42:50.135Z,9.77
2023-03-19T10:45:32.246Z,8.00
2023-03-19T10:48:00.825Z,8.57
2023-03-19T10:51:06.743Z,8.40
2023-03-19T10:53:38.184Z,8.77
2023-03-19T10:56:05.105Z,8.70
2023-03-19T10:58:36.754Z,9.03
2023-03-19T11:01:09.755Z,7.90
2023-03-19T11:03:57.146Z,9.10
2023-03-19T11:06:33.336Z,8.27
2023-03-19T11:09:39.069Z,7.37
2023-03-19T11:12:34.028Z,7.40
2023-03-19T11:15:03.874Z,7.83
2023-03-19T11:17:37.001Z,8.53
2023-03-19T11:20:15.837Z,6.73
2023-03-19T11:22:42.916Z,6.37
2023-03-19T11:25:26.993Z,5.20
2023-03-19T11:28:03.933Z,5.00
2023-03-19T11:30:40.627Z,5.90
2023-03-19T11:33:20.130Z,4.00
2023-03-19T11:35:51.971Z,4.30
2023-03-19T11:38:49.461Z,4.30
2023-03-19T11:41:49.550Z,3.27
2023-03-19T11:44:28.973Z,3.07
2023-03-19T11:47:17.772Z,3.00
2023-03-19T11:50:18.303Z,3.17
2023-03-19T11:53:03.258Z,3.00
2023-03-19T11:55:51.403Z,3.00
2023-03-19T11:58:21.136Z,2.70
2023-03-19T12:00:52.650Z,3.00
2023-03-19T12:03:56.878Z,2.93
2023-03-19T12:06:35.575Z,3.13
2023-03-19T12:09:07.823Z,2.60
2023-03-19T12:11:40.045Z,3.10
2023-03-19T12:14:34.541Z,2.70
2023-03-19T12:17:04.306Z,2.83
2023-03-19T12:20:05.156Z,2.70
2023-03-19T12:22:52.492Z,2.70
2023-03-19T12:25:42.676Z,3.30
2023-03-19T12:28:26.536Z,3.07
2023-03-19T12:31:18.050Z,3.00
2023-03-19T12:34:29.659Z,3.47
2023-03-19T12:37:25.977Z,3.40
2023-03-19T12:40:22.677Z,3.17
2023-03-19T12:42:49.350Z,3.40
2023-03-19T12:45:34.774Z,3.80
2023-03-19T12:48:27.212Z,3.73
2023-03-19T12:50:58.786Z,3.13
2023-03-19T12:53:40.916Z,3.30
2023-03-19T12:56:15.010Z,3.60
2023-03-19T12:59:09.914Z,3.10
2023-03-19T13:01:53.410Z,2.83
2023-03-19T13:04:26.376Z,3.00
2023-03-19T13:07:16.215Z,3.33
2023-03-19T13:09:58.069Z,2.93
2023-03-19T13:12:28.821Z,2.93
2023-03-19T13:15:03.274Z,3.20
2023-03-19T13:17:57.068Z,2.90
2023-03-19T13:20:32.585Z,2.90
2023-03-19T13:23:03.179Z,2.90
2023-03-19T13:25:43.438Z,2.40
2023-03-19T13:28:12.067Z,2.20
2023-03-19T13:30:40.397Z,2.53
2023-03-19T13:33:14.007Z,2.20
2023-03-19T13:35:45.557Z,2.63
2023-03-19T13:38:18.604Z,3.30
2023-03-19T13:40:50.991Z,3.40
2023-03-19T13:43:29.914Z,3.30
2023-03-19T13:46:17.560Z,2.80
2023-03-19T13:48:47.668Z,3.50
2023-03-19T13:51:21.026Z,3.30
2023-03-19T13:54:12.779Z,3.47
2023-03-19T13:57:00.864Z,3.10
2023-03-19T13:59:29.859Z,3.17
2023-03-19T14:01:57.634Z,3.40
2023-03-19T14:04:26.386Z,3.00
2023-03-19T14:06:56.693Z,2.60
2023-03-19T14:09:43.389Z,2.60
2023-03-19T14:12:15.885Z,2.70
2023-03-19T14:15:00.119Z,2.23
2023-03-19T14:17:59.144Z,2.43
2023-03-19T14:20:40.313Z,3.13
2023-03-19T14:23:17.917Z,2.90
2023-03-19T14:25:56.832Z,2.50
2023-03-19T14:28:36.538Z,3.13
2023-03-19T14:31:05.405Z,3.23
2023-03-19T14:33:52.325Z,3.30
2023-03-19T14:36:21.976Z,3.77
2023-03-19T14:39:25.215Z,3.50
2023-03-19T14:42:01.110Z,3.60
2023-03-19T14:45:16.049Z,3.27
2023-03-19T14:48:29.512Z,3.77
2023-03-19T14:51:25.542Z,3.50
2023-03-19T14:54:18.155Z,3.77
2023-03-19T14:56:48.181Z,3.03
2023-03-19T14:59:16.058Z,3.40
2023-03-19T15:01:51.133Z,3.40
2023-03-19T15:04:20.784Z,3.17
2023-03-19T15:06:56.370Z,3.40
2023-03-19T15:09:33.724Z,2.70
2023-03-19T15:12:31.448Z,3.53
2023-03-19T15:15:14.055Z,3.47
2023-03-19T15:17:41.675Z,3.73
2023-03-19T15:20:22.997Z,3.03
2023-03-19T15:23:00.679Z,3.40
2023-03-19T15:25:28.320Z,3.43
2023-03-19T15:28:14.312Z,3.77
2023-03-19T15:30:53.868Z,3.33
2023-03-19T15:33:40.067Z,3.13
2023-03-19T15:36:27.482Z,3.47
2023-03-19T15:38:57.511Z,3.40
2023-03-19T15:41:27.259Z,3.30
2023-03-19T15:43:55.059Z,3.80
2023-03-19T15:46:27.194Z,4.53
2023-03-19T15:49:02.030Z,4.27
2023-03-19T15:51:30.670Z,4.47
2023-03-19T15:53:59.225Z,5.40
2023-03-19T15:56:26.966Z,4.93
2023-03-19T15:58:57.268Z,6.20
2023-03-19T16:01:24.504Z,7.67
2023-03-19T16:03:55.446Z,8.00
2023-03-19T16:06:31.629Z,8.00
2023-03-19T16:09:17.426Z,7.13
2023-03-19T16:11:45.858Z,7.17
2023-03-19T16:14:18.471Z,6.67
2023-03-19T16:16:48.150Z,7.80
2023-03-19T16:19:36.367Z,7.13
2023-03-19T16:22:13.267Z,4.57
2023-03-19T16:24:46.735Z,3.80
2023-03-19T16:27:19.745Z,4.43
2023-03-19T16:29:49.347Z,4.40
2023-03-19T16:32:19.908Z,4.80
2023-03-19T16:34:53.678Z,6.00
2023-03-19T16:37:32.897Z,8.40
2023-03-19T16:40:23.752Z,8.07
2023-03-19T16:42:56.231Z,7.50
2023-03-19T16:45:31.776Z,10.30
2023-03-19T16:48:03.379Z,11.00
2023-03-19T16:50:36.269Z,10.00
2023-03-19T16:53:06.542Z,9.83
2023-03-19T16:55:36.128Z,8.90
2023-03-19T16:58:16.334Z,10.07
2023-03-19T17:00:44.569Z,9.70
2023-03-19T17:03:17.032Z,10.60
2023-03-19T17:05:45.671Z,9.47
2023-03-19T17:08:13.546Z,9.10
2023-03-19T17:10:44.819Z,9.17
2023-03-19T17:13:28.430Z,10.10
2023-03-19T17:16:08.194Z,9.93
2023-03-19T17:18:38.976Z,9.70
2023-03-19T17:21:17.127Z,9.10
2023-03-19T17:23:44.857Z,9.67
2023-03-19T17:26:27.118Z,9.30
2023-03-19T17:28:55.997Z,10.53
2023-03-19T17:31:30.600Z,10.40
2023-03-19T17:34:05.990Z,10.20
2023-03-19T17:36:33.780Z,9.97
2023-03-19T17:39:00.754Z,11.30
2023-03-19T17:41:30.355Z,11.57
2023-03-19T17:43:57.331Z,11.83
2023-03-19T17:46:27.183Z,10.47
2023-03-19T17:48:55.260Z,12.60
2023-03-19T17:51:25.985Z,11.73
2023-03-19T17:53:55.920Z,12.03
2023-03-19T17:56:25.664Z,12.50
2023-03-19T17:58:53.648Z,13.93
2023-03-19T18:01:24.479Z,12.07
2023-03-19T18:03:53.996Z,13.93
2023-03-19T18:06:23.831Z,12.60
2023-03-19T18:08:51.408Z,12.20
2023-03-19T18:11:18.522Z,12.90
2023-03-19T18:13:46.173Z,12.80
2023-03-19T18:16:26.237Z,12.20
2023-03-19T18:18:53.405Z,12.37
2023-03-19T18:21:20.409Z,12.37
2023-03-19T18:23:47.723Z,11.17
2023-03-19T18:26:17.024Z,13.50
2023-03-19T18:28:44.721Z,12.77
2023-03-19T18:31:18.894Z,11.43
2023-03-19T18:33:52.634Z,11.27
2023-03-19T18:36:28.373Z,12.80
2023-03-19T18:38:55.851Z,11.57
2023-03-19T18:41:24.812Z,12.80
2023-03-19T18:43:52.350Z,11.93
2023-03-19T18:46:39.140Z,12.10
2023-03-19T18:49:25.984Z,13.20
2023-03-19T18:52:08.924Z,11.07
2023-03-19T18:54:35.840Z,12.03
2023-03-19T18:57:03.707Z,12.67
2023-03-19T18:59:32.948Z,12.23
2023-03-19T19:02:03.591Z,13.50
2023-03-19T19:04:31.554Z,12.70
2023-03-19T19:06:58.495Z,12.90
2023-03-19T19:09:25.405Z,12.90
2023-03-19T19:11:54.395Z,13.10
2023-03-19T19:14:23.895Z,12.97
2023-03-19T19:16:52.926Z,13.10
2023-03-19T19:19:23.345Z,13.73
2023-03-19T19:21:51.833Z,13.07
2023-03-19T19:24:19.708Z,13.10
2023-03-19T19:26:53.630Z,12.63
2023-03-19T19:29:26.047Z,12.97
2023-03-19T19:31:54.173Z,13.03
2023-03-19T19:34:21.955Z,13.00
2023-03-19T19:36:50.921Z,14.67
2023-03-19T19:39:18.632Z,14.20
2023-03-19T19:41:46.635Z,14.23
2023-03-19T19:44:21.408Z,16.20
2023-03-19T19:46:48.535Z,14.30
2023-03-19T19:49:16.372Z,15.03
2023-03-19T19:51:43.732Z,15.40
2023-03-19T19:54:15.108Z,14.27
2023-03-19T19:56:42.909Z,13.70
2023-03-19T19:59:15.272Z,13.77
2023-03-19T20:01:43.595Z,13.03
2023-03-19T20:04:15.052Z,13.00
2023-03-19T20:06:42.393Z,13.60
2023-03-19T20:09:09.292Z,13.63
2023-03-19T20:11:36.616Z,14.60
2023-03-19T20:14:03.682Z,14.47
2023-03-19T20:16:31.042Z,13.80
2023-03-19T20:18:58.739Z,13.23
2023-03-19T20:21:26.258Z,14.03
2023-03-19T20:23:55.450Z,14.27
2023-03-19T20:26:25.109Z,14.03
2023-03-19T20:28:52.982Z,14.70
2023-03-19T20:31:30.154Z,14.60
2023-03-19T20:33:57.745Z,13.87
2023-03-19T20:36:24.730Z,15.50
2023-03-19T20:38:52.960Z,16.90
2023-03-19T20:41:27.140Z,14.83
2023-03-19T20:43:55.329Z,16.63
2023-03-19T20:46:23.321Z,15.90
2023-03-19T20:48:50.715Z,16.77
2023-03-19T20:51:21.590Z,16.47
2023-03-19T20:53:50.016Z,15.80
2023-03-19T20:56:20.041Z,19.10
2023-03-19T20:58:47.408Z,16.83
2023-03-19T21:01:15.560Z,17.80
2023-03-19T21:03:43.125Z,16.97
2023-03-19T21:06:19.882Z,15.40
2023-03-19T21:08:58.132Z,16.87
2023-03-19T21:11:37.181Z,16.90
2023-03-19T21:14:04.831Z,16.00
2023-03-19T21:16:33.990Z,14.57
2023-03-19T21:19:01.865Z,16.77
2023-03-19T21:21:35.356Z,16.60
2023-03-19T21:24:08.014Z,14.57
2023-03-19T21:26:40.549Z,17.70
2023-03-19T21:29:14.374Z,16.70
2023-03-19T21:31:41.584Z,16.50
2023-03-19T21:34:13.730Z,14.27
2023-03-19T21:36:40.577Z,14.47
2023-03-19T21:39:07.630Z,15.67
2023-03-19T21:41:36.207Z,15.57
2023-03-19T21:44:11.575Z,13.83
2023-03-19T21:46:38.667Z,14.03
2023-03-19T21:49:11.250Z,13.70
2023-03-19T21:51:38.413Z,13.60
2023-03-19T21:54:06.115Z,12.63
2023-03-19T21:56:40.817Z,12.90
2023-03-19T21:59:18.159Z,13.40
2023-03-19T22:01:45.316Z,13.00
2023-03-19T22:04:12.228Z,13.43
2023-03-19T22:06:40.081Z,13.60
2023-03-19T22:09:07.048Z,14.43
2023-03-19T22:11:37.801Z,13.50
2023-03-19T22:14:20.171Z,12.20
2023-03-19T22:16:53.964Z,12.73
2023-03-19T22:19:21.603Z,12.57
2023-03-19T22:21:49.558Z,12.97
2023-03-19T22:24:16.467Z,13.67
2023-03-19T22:26:44.292Z,13.73
2023-03-19T22:29:20.426Z,14.80
2023-03-19T22:31:52.900Z,12.67
2023-03-19T22:34:23.044Z,13.20
2023-03-19T22:36:51.044Z,15.73
2023-03-19T22:39:18.220Z,13.70
2023-03-19T22:41:48.000Z,15.27
2023-03-19T22:44:26.695Z,13.83
2023-03-19T22:46:54.861Z,15.13
2023-03-19T22:49:22.024Z,16.63
2023-03-19T22:51:48.904Z,16.47
2023-03-19T22:54:15.746Z,15.90
2023-03-19T22:56:42.728Z,18.10
2023-03-19T22:59:09.757Z,17.60
2023-03-19T23:01:41.510Z,21.17
2023-03-19T23:04:30.661Z,18.77
2023-03-19T23:06:59.151Z,19.20
2023-03-19T23:09:27.213Z,19.63
2023-03-19T23:11:54.264Z,18.70
2023-03-19T23:14:29.635Z,20.27
2023-03-19T23:17:03.578Z,20.20
2023-03-19T23:19:33.557Z,20.13
2023-03-19T23:22:03.219Z,20.63
2023-03-19T23:24:30.744Z,21.60
2023-03-19T23:26:59.825Z,20.93
2023-03-19T23:29:37.467Z,20.30
2023-03-19T23:32:05.079Z,20.50
2023-03-19T23:34:35.368Z,19.90
2023-03-19T23:37:07.216Z,19.97
2023-03-19T23:39:34.255Z,17.07
2023-03-19T23:42:01.173Z,19.80
2023-03-19T23:44:29.283Z,19.87
2023-03-19T23:46:59.796Z,20.70
2023-03-19T23:49:33.317Z,19.53
2023-03-19T23:52:01.903Z,19.30
2023-03-19T23:54:31.956Z,18.93
2023-03-19T23:57:01.776Z,19.57
2023-03-19T23:59:33.214Z,17.73
